createdAt,value
2017-12-17T00:00:56.320Z,90.50
2017-12-17T00:03:23.882Z,90.40
2017-12-17T00:05:51.517Z,90.20
2017-12-17T00:08:19.099Z,90.20
2017-12-17T00:10:46.683Z,90.00
2017-12-17T00:13:16.414Z,89.80
2017-12-17T00:15:44.738Z,89.50
2017-12-17T00:18:12.305Z,89.40
2017-12-17T00:20:39.878Z,89.30
2017-12-17T00:23:07.502Z,89.20
2017-12-17T00:25:35.267Z,89.40
2017-12-17T00:28:03.046Z,89.40
2017-12-17T00:30:30.713Z,89.40
2017-12-17T00:32:58.335Z,89.40
2017-12-17T00:35:25.981Z,89.50
2017-12-17T00:37:53.555Z,89.10
2017-12-17T00:40:21.088Z,89.00
2017-12-17T00:42:49.416Z,89.10
2017-12-17T00:45:16.991Z,89.10
2017-12-17T00:47:44.553Z,89.10
2017-12-17T00:50:12.510Z,89.40
2017-12-17T00:52:40.108Z,89.70
2017-12-17T00:55:08.452Z,90.20
2017-12-17T00:57:36.019Z,89.80
2017-12-17T01:00:03.765Z,89.40
2017-12-17T01:02:31.302Z,89.60
2017-12-17T01:04:58.892Z,89.80
2017-12-17T01:07:26.432Z,89.70
2017-12-17T01:09:53.965Z,89.70
2017-12-17T01:12:21.563Z,90.00
2017-12-17T01:14:49.104Z,89.90
2017-12-17T01:17:16.639Z,90.00
2017-12-17T01:19:44.223Z,90.00
2017-12-17T01:22:11.751Z,90.00
2017-12-17T01:24:39.285Z,90.10
2017-12-17T01:27:07.309Z,90.10
2017-12-17T01:29:34.849Z,90.20
2017-12-17T01:32:02.391Z,90.30
2017-12-17T01:34:29.987Z,90.40
2017-12-17T01:36:57.523Z,90.40
2017-12-17T01:39:25.059Z,90.50
2017-12-17T01:41:53.412Z,91.10
2017-12-17T01:44:20.949Z,90.80
2017-12-17T01:46:50.018Z,90.90
2017-12-17T01:49:17.590Z,91.10
2017-12-17T01:51:45.134Z,91.30
2017-12-17T01:54:13.591Z,91.40
2017-12-17T01:56:41.171Z,91.60
2017-12-17T01:59:09.476Z,91.70
2017-12-17T02:01:37.003Z,91.60
2017-12-17T02:04:04.556Z,91.60
2017-12-17T02:06:32.843Z,91.80
2017-12-17T02:09:00.379Z,91.70
2017-12-17T02:11:27.940Z,91.60
2017-12-17T02:13:56.238Z,91.10
2017-12-17T02:16:23.767Z,91.10
2017-12-17T02:18:52.120Z,90.70
2017-12-17T02:21:19.656Z,90.70
2017-12-17T02:23:47.191Z,90.70
2017-12-17T02:26:15.537Z,90.60
2017-12-17T02:28:43.323Z,90.50
2017-12-17T02:31:11.621Z,90.50
2017-12-17T02:33:39.204Z,90.50
2017-12-17T02:36:06.727Z,90.60
2017-12-17T02:38:34.260Z,90.50
2017-12-17T02:41:02.048Z,90.30
2017-12-17T02:43:29.539Z,90.50
2017-12-17T02:45:57.078Z,90.50
2017-12-17T02:48:24.651Z,90.50
2017-12-17T02:50:52.184Z,90.90
2017-12-17T02:53:19.723Z,90.80
2017-12-17T02:55:48.083Z,90.80
2017-12-17T02:58:16.463Z,90.90
2017-12-17T03:00:44.479Z,90.90
2017-12-17T03:03:12.076Z,90.90
2017-12-17T03:05:39.612Z,90.90
2017-12-17T03:08:07.286Z,91.00
2017-12-17T03:10:34.867Z,90.80
2017-12-17T03:13:02.390Z,90.60
2017-12-17T03:15:29.926Z,90.70
2017-12-17T03:17:57.489Z,90.70
2017-12-17T03:20:25.457Z,90.60
2017-12-17T03:22:52.990Z,90.50
2017-12-17T03:25:20.593Z,90.60
2017-12-17T03:27:48.127Z,90.80
2017-12-17T03:30:17.053Z,90.50
2017-12-17T03:32:44.618Z,90.30
2017-12-17T03:35:12.163Z,90.20
2017-12-17T03:37:39.692Z,90.30
2017-12-17T03:40:07.250Z,90.50
2017-12-17T03:42:34.788Z,90.30
2017-12-17T03:45:03.089Z,90.30
2017-12-17T03:47:30.677Z,90.30
2017-12-17T03:49:58.219Z,90.20
2017-12-17T03:52:25.755Z,90.20
2017-12-17T03:54:53.344Z,90.20
2017-12-17T03:57:20.892Z,90.20
2017-12-17T03:59:48.437Z,90.30
2017-12-17T04:02:16.484Z,90.40
2017-12-17T04:04:44.780Z,90.20
2017-12-17T04:07:12.316Z,90.20
2017-12-17T04:09:39.895Z,90.30
2017-12-17T04:12:07.433Z,90.30
2017-12-17T04:14:35.167Z,90.40
2017-12-17T04:17:02.720Z,90.30
2017-12-17T04:19:30.277Z,90.30
2017-12-17T04:21:57.814Z,90.40
2017-12-17T04:24:25.372Z,90.30
2017-12-17T04:26:52.918Z,90.30
2017-12-17T04:29:20.456Z,90.20
2017-12-17T04:31:49.291Z,90.20
2017-12-17T04:34:16.827Z,90.20
2017-12-17T04:36:44.362Z,90.50
2017-12-17T04:39:11.914Z,90.20
2017-12-17T04:41:40.213Z,90.40
2017-12-17T04:44:07.743Z,90.40
2017-12-17T04:46:35.316Z,90.70
2017-12-17T04:49:03.615Z,91.00
2017-12-17T04:51:31.157Z,91.00
2017-12-17T04:53:59.093Z,91.20
2017-12-17T04:56:26.632Z,91.50
2017-12-17T04:58:54.159Z,91.60
2017-12-17T05:01:21.723Z,91.60
2017-12-17T05:03:49.263Z,91.50
2017-12-17T05:06:16.791Z,91.30
2017-12-17T05:08:44.387Z,91.40
2017-12-17T05:11:12.198Z,91.60
2017-12-17T05:13:39.727Z,91.60
2017-12-17T05:16:07.306Z,91.50
2017-12-17T05:18:34.847Z,91.40
2017-12-17T05:21:02.380Z,91.40
2017-12-17T05:23:29.987Z,91.40
2017-12-17T05:25:57.519Z,91.10
2017-12-17T05:28:25.232Z,91.10
2017-12-17T05:30:52.820Z,91.00
2017-12-17T05:33:20.570Z,91.10
2017-12-17T05:35:48.279Z,90.90
2017-12-17T05:38:17.297Z,90.90
2017-12-17T05:40:45.638Z,91.00
2017-12-17T05:43:15.467Z,91.00
2017-12-17T05:45:43.023Z,90.90
2017-12-17T05:48:10.547Z,90.90
2017-12-17T05:50:38.127Z,91.10
2017-12-17T05:53:05.680Z,91.10
2017-12-17T05:55:33.255Z,91.10
2017-12-17T05:58:01.556Z,91.20
2017-12-17T06:00:29.188Z,91.20
2017-12-17T06:02:56.791Z,91.10
2017-12-17T06:05:24.371Z,90.90
2017-12-17T06:07:52.852Z,90.90
2017-12-17T06:10:20.438Z,90.90
2017-12-17T06:12:47.974Z,90.80
2017-12-17T06:15:16.475Z,90.90
2017-12-17T06:17:44.004Z,90.60
2017-12-17T06:20:11.535Z,90.70
2017-12-17T06:22:39.135Z,90.60
2017-12-17T06:25:06.831Z,90.60
2017-12-17T06:27:34.371Z,90.60
2017-12-17T06:30:02.004Z,90.70
2017-12-17T06:32:30.297Z,90.70
2017-12-17T06:34:58.462Z,90.60
2017-12-17T06:37:26.033Z,90.60
2017-12-17T06:39:53.566Z,90.70
2017-12-17T06:42:21.123Z,90.70
2017-12-17T06:44:49.496Z,90.70
2017-12-17T06:47:17.031Z,90.70
2017-12-17T06:49:44.559Z,90.50
2017-12-17T06:52:12.130Z,90.60
2017-12-17T06:54:39.670Z,90.50
2017-12-17T06:57:07.247Z,90.50
2017-12-17T06:59:34.824Z,90.70
2017-12-17T07:02:02.536Z,90.70
2017-12-17T07:04:30.068Z,90.80
2017-12-17T07:06:58.923Z,90.70
2017-12-17T07:09:26.480Z,90.70
2017-12-17T07:11:54.119Z,90.70
2017-12-17T07:14:21.687Z,90.60
2017-12-17T07:16:49.215Z,90.50
2017-12-17T07:19:16.764Z,90.60
2017-12-17T07:21:44.660Z,90.40
2017-12-17T07:24:12.672Z,90.40
2017-12-17T07:26:40.207Z,90.30
2017-12-17T07:29:08.283Z,90.20
2017-12-17T07:31:35.812Z,90.20
2017-12-17T07:34:03.342Z,90.00
2017-12-17T07:36:31.966Z,90.00
2017-12-17T07:38:59.534Z,89.50
2017-12-17T07:41:27.068Z,89.70
2017-12-17T07:43:54.619Z,89.60
2017-12-17T07:46:22.154Z,89.50
2017-12-17T07:48:49.857Z,89.70
2017-12-17T07:51:17.459Z,89.60
2017-12-17T07:53:45.767Z,88.90
2017-12-17T07:56:15.524Z,88.90
2017-12-17T07:58:43.075Z,88.50
2017-12-17T08:01:10.748Z,88.40
2017-12-17T08:03:38.363Z,88.40
2017-12-17T08:06:05.947Z,88.40
2017-12-17T08:08:33.508Z,88.40
2017-12-17T08:11:01.218Z,88.00
2017-12-17T08:13:28.807Z,87.90
2017-12-17T08:15:56.336Z,88.30
2017-12-17T08:18:23.872Z,88.10
2017-12-17T08:20:51.435Z,87.80
2017-12-17T08:23:19.060Z,87.50
2017-12-17T08:25:47.403Z,87.30
2017-12-17T08:28:16.356Z,87.60
2017-12-17T08:30:43.907Z,87.60
2017-12-17T08:33:11.445Z,87.70
2017-12-17T08:35:39.072Z,87.70
2017-12-17T08:38:07.664Z,87.80
2017-12-17T08:40:35.205Z,87.70
2017-12-17T08:43:03.543Z,87.10
2017-12-17T08:45:31.108Z,87.00
2017-12-17T08:47:58.637Z,87.50
2017-12-17T08:50:26.192Z,87.30
2017-12-17T08:52:53.724Z,86.40
2017-12-17T08:55:22.023Z,85.90
2017-12-17T08:57:49.603Z,85.80
2017-12-17T09:00:17.158Z,85.40
2017-12-17T09:02:44.684Z,85.50
2017-12-17T09:05:12.235Z,85.30
2017-12-17T09:07:40.541Z,85.00
2017-12-17T09:10:08.082Z,85.00
2017-12-17T09:12:35.650Z,84.80
2017-12-17T09:15:03.187Z,84.40
2017-12-17T09:17:31.493Z,85.30
2017-12-17T09:19:59.943Z,85.40
2017-12-17T09:22:27.471Z,85.40
2017-12-17T09:24:55.016Z,84.60
2017-12-17T09:27:22.608Z,85.00
2017-12-17T09:29:50.167Z,85.20
2017-12-17T09:32:17.779Z,84.90
2017-12-17T09:34:45.331Z,85.80
2017-12-17T09:37:14.408Z,85.80
2017-12-17T09:48:12.048Z,85.70
2017-12-17T09:50:40.456Z,84.80
2017-12-17T09:53:08.347Z,84.50
2017-12-17T09:55:36.699Z,84.00
2017-12-17T09:58:05.153Z,83.90
2017-12-17T10:00:33.065Z,83.80
2017-12-17T10:03:01.747Z,83.20
2017-12-17T10:05:32.612Z,83.60
2017-12-17T10:08:00.156Z,84.30
2017-12-17T10:10:28.553Z,83.70
2017-12-17T10:12:56.123Z,83.70
2017-12-17T10:15:23.803Z,84.10
2017-12-17T10:17:51.643Z,84.50
2017-12-17T10:20:19.898Z,84.00
2017-12-17T10:22:48.486Z,84.60
2017-12-17T10:25:16.538Z,84.50
2017-12-17T10:27:44.142Z,85.00
2017-12-17T10:30:11.693Z,85.80
2017-12-17T10:32:39.329Z,85.60
2017-12-17T10:35:07.698Z,85.80
2017-12-17T10:37:35.273Z,85.80
2017-12-17T10:40:03.864Z,85.60
2017-12-17T10:42:31.409Z,85.50
2017-12-17T10:44:59.722Z,84.40
2017-12-17T10:47:27.287Z,84.40
2017-12-17T10:49:55.114Z,84.50
2017-12-17T10:52:22.660Z,85.10
2017-12-17T10:54:51.034Z,85.80
2017-12-17T14:24:28.409Z,88.20
2017-12-17T14:26:56.014Z,87.90
2017-12-17T14:29:23.575Z,88.20
2017-12-17T14:31:51.104Z,87.70
2017-12-17T14:34:18.636Z,87.90
2017-12-17T14:36:46.252Z,87.70
2017-12-17T14:39:16.909Z,87.10
2017-12-17T14:41:44.450Z,87.10
2017-12-17T14:44:12.086Z,86.90
2017-12-17T14:46:39.638Z,86.80
2017-12-17T14:49:07.245Z,86.60
2017-12-17T14:51:38.157Z,86.70
2017-12-17T14:54:05.738Z,86.80
2017-12-17T14:56:33.318Z,87.40
2017-12-17T14:59:00.980Z,87.30
2017-12-17T15:01:28.531Z,87.40
2017-12-17T15:03:56.072Z,86.80
2017-12-17T15:06:24.494Z,86.80
2017-12-17T15:08:52.032Z,86.80
2017-12-17T15:11:19.569Z,86.20
2017-12-17T15:13:48.310Z,85.70
2017-12-17T15:16:17.755Z,85.70
2017-12-17T15:18:46.055Z,85.50
2017-12-17T15:21:14.527Z,85.00
2017-12-17T15:32:17.415Z,85.00
2017-12-17T15:34:44.995Z,86.40
2017-12-17T15:37:12.574Z,85.80
2017-12-17T15:39:40.933Z,85.60
2017-12-17T15:42:08.467Z,85.60
2017-12-17T15:44:36.000Z,85.80
2017-12-17T15:47:03.564Z,85.50
2017-12-17T15:49:31.104Z,85.60
2017-12-17T15:51:58.712Z,85.20
2017-12-17T15:54:26.363Z,85.50
2017-12-17T15:56:53.900Z,85.50
2017-12-17T15:59:21.449Z,85.50
2017-12-17T16:01:49.046Z,85.50
2017-12-17T16:04:16.633Z,85.30
2017-12-17T16:06:45.178Z,85.40
2017-12-17T16:09:13.714Z,85.20
2017-12-17T16:11:41.341Z,85.80
2017-12-17T16:14:08.882Z,84.50
2017-12-17T16:16:37.525Z,84.80
2017-12-17T16:19:05.163Z,85.30
2017-12-17T16:21:32.736Z,85.80
2017-12-17T16:24:00.579Z,85.50
2017-12-17T16:26:28.201Z,85.90
2017-12-17T16:28:55.784Z,86.10
2017-12-17T16:31:23.357Z,86.80
2017-12-17T16:33:52.215Z,86.90
2017-12-17T16:36:19.840Z,86.80
2017-12-17T16:38:47.583Z,86.50
2017-12-17T16:41:17.252Z,86.90
2017-12-17T16:43:44.784Z,86.90
2017-12-17T16:46:12.362Z,87.40
2017-12-17T16:48:39.950Z,87.60
2017-12-17T16:51:07.728Z,87.90
2017-12-17T16:53:36.070Z,88.80
2017-12-17T16:56:03.688Z,88.80
2017-12-17T16:58:31.333Z,89.30
2017-12-17T17:00:59.005Z,89.00
2017-12-17T17:03:26.601Z,89.10
2017-12-17T17:05:54.186Z,89.20
2017-12-17T17:08:22.576Z,89.30
2017-12-17T17:10:50.926Z,90.00
2017-12-17T17:13:18.552Z,89.40
2017-12-17T17:15:46.239Z,89.70
2017-12-17T17:18:15.651Z,89.40
2017-12-17T17:20:44.132Z,89.00
2017-12-17T17:23:11.778Z,88.90
2017-12-17T17:25:39.312Z,88.70
2017-12-17T17:28:06.891Z,88.50
2017-12-17T17:30:34.494Z,88.60
2017-12-17T17:33:02.089Z,88.80
2017-12-17T17:35:30.071Z,88.50
2017-12-17T17:37:57.732Z,88.50
2017-12-17T17:40:25.336Z,88.20
2017-12-17T17:42:52.915Z,88.60
2017-12-17T17:45:27.202Z,88.30
2017-12-17T17:47:54.936Z,88.30
2017-12-17T17:50:22.527Z,88.20
2017-12-17T17:52:50.140Z,87.50
2017-12-17T17:55:17.744Z,87.50
2017-12-17T17:57:45.421Z,87.70
2017-12-17T18:00:23.583Z,87.30
2017-12-17T18:02:52.015Z,87.20
2017-12-17T18:05:22.108Z,86.80
2017-12-17T18:07:49.771Z,86.80
2017-12-17T18:10:25.219Z,86.70
2017-12-17T18:12:52.822Z,86.50
2017-12-17T18:15:20.355Z,86.70
2017-12-17T18:17:48.706Z,87.10
2017-12-17T18:20:17.326Z,85.90
2017-12-17T18:22:44.850Z,85.90
2017-12-17T18:25:12.416Z,85.70
2017-12-17T18:27:40.067Z,86.20
2017-12-17T18:30:07.614Z,86.00
2017-12-17T18:32:35.968Z,85.30
2017-12-17T18:35:03.578Z,85.30
2017-12-17T18:37:31.430Z,85.50
2017-12-17T18:39:59.031Z,85.60
2017-12-17T18:42:27.466Z,84.90
2017-12-17T18:44:55.764Z,85.20
2017-12-17T18:47:23.332Z,85.20
2017-12-17T18:49:51.746Z,85.90
2017-12-17T18:52:19.285Z,85.20
2017-12-17T18:54:46.883Z,85.00
2017-12-17T18:57:15.607Z,85.00
2017-12-17T18:59:43.240Z,85.00
2017-12-17T19:02:10.830Z,84.80
2017-12-17T19:04:38.475Z,84.80
2017-12-17T19:07:07.106Z,85.10
2017-12-17T19:09:34.691Z,85.10
2017-12-17T19:12:02.351Z,85.20
2017-12-17T19:14:29.935Z,85.10
2017-12-17T19:16:57.691Z,85.20
2017-12-17T19:19:25.575Z,85.30
2017-12-17T19:21:53.458Z,84.80
2017-12-17T19:24:21.026Z,84.70
2017-12-17T19:26:49.402Z,85.00
2017-12-17T19:29:17.004Z,85.00
2017-12-17T19:31:44.611Z,85.30
2017-12-17T19:34:13.956Z,85.50
2017-12-17T19:36:41.572Z,85.50
2017-12-17T19:39:10.259Z,86.60
2017-12-17T19:41:38.648Z,87.30
2017-12-17T19:44:06.239Z,87.40
2017-12-17T19:46:33.784Z,88.00
2017-12-17T19:49:01.403Z,88.30
2017-12-17T19:51:28.995Z,88.70
2017-12-17T19:53:57.358Z,88.70
2017-12-17T19:56:25.771Z,88.20
2017-12-17T19:58:53.359Z,88.20
2017-12-17T20:01:20.946Z,87.80
2017-12-17T20:03:48.528Z,87.50
2017-12-17T20:06:16.463Z,87.20
2017-12-17T20:08:44.171Z,87.10
2017-12-17T20:11:12.058Z,86.70
2017-12-17T20:13:39.662Z,86.80
2017-12-17T20:16:07.210Z,86.20
2017-12-17T20:18:34.800Z,85.70
2017-12-17T20:21:02.340Z,85.90
2017-12-17T20:23:30.091Z,86.00
2017-12-17T20:25:57.977Z,85.80
2017-12-17T20:28:25.655Z,86.00
2017-12-17T20:30:53.263Z,85.80
2017-12-17T20:33:20.919Z,85.80
2017-12-17T20:35:48.507Z,85.50
2017-12-17T20:38:16.540Z,85.50
2017-12-17T20:40:44.192Z,85.30
2017-12-17T20:43:12.094Z,85.60
2017-12-17T20:45:39.692Z,85.20
2017-12-17T20:48:07.310Z,85.40
2017-12-17T20:50:34.916Z,85.50
2017-12-17T20:53:02.534Z,85.30
2017-12-17T20:55:30.166Z,85.00
2017-12-17T20:57:58.032Z,84.80
2017-12-17T21:00:25.635Z,85.10
2017-12-17T21:02:53.439Z,85.10
2017-12-17T21:05:21.028Z,85.70
2017-12-17T21:07:48.615Z,85.30
2017-12-17T21:10:16.546Z,85.50
2017-12-17T21:12:44.131Z,85.40
2017-12-17T21:15:12.591Z,86.00
2017-12-17T21:17:40.199Z,86.10
2017-12-17T21:20:08.560Z,87.10
2017-12-17T21:22:36.385Z,86.60
2017-12-17T21:25:04.053Z,86.60
2017-12-17T21:27:31.654Z,86.60
2017-12-17T21:29:59.369Z,87.10
2017-12-17T21:32:26.994Z,87.00
2017-12-17T21:34:55.343Z,87.10
2017-12-17T21:37:22.932Z,87.10
2017-12-17T21:39:51.653Z,86.90
2017-12-17T21:42:19.446Z,86.90
2017-12-17T21:44:47.189Z,86.80
2017-12-17T21:47:16.506Z,86.90
2017-12-17T21:49:44.091Z,86.40
2017-12-17T21:52:12.517Z,86.40
2017-12-17T21:54:40.130Z,86.40
2017-12-17T21:57:08.166Z,86.20
2017-12-17T21:59:35.775Z,85.80
2017-12-17T22:02:04.176Z,85.90
2017-12-17T22:04:31.763Z,85.80
2017-12-17T22:06:59.351Z,85.70
2017-12-17T22:09:27.770Z,85.30
2017-12-17T22:11:55.381Z,85.20
2017-12-17T22:14:22.963Z,85.10
2017-12-17T22:16:51.350Z,85.30
2017-12-17T22:19:18.967Z,85.30
2017-12-17T22:21:46.601Z,85.10
2017-12-17T22:24:15.629Z,84.40
2017-12-17T22:26:43.214Z,84.60
2017-12-17T22:29:10.808Z,84.60
2017-12-17T22:31:38.645Z,85.00
2017-12-17T22:34:07.026Z,84.40
2017-12-17T22:36:34.611Z,84.40
2017-12-17T22:39:02.240Z,84.50
2017-12-17T22:41:30.594Z,84.20
2017-12-17T22:43:59.345Z,84.10
2017-12-17T22:46:27.021Z,84.10
2017-12-17T22:48:54.660Z,84.10
2017-12-17T22:51:22.254Z,84.00
2017-12-17T22:53:50.174Z,83.80
2017-12-17T22:56:18.544Z,84.00
2017-12-17T22:58:46.129Z,84.00
2017-12-17T23:01:19.542Z,84.10
2017-12-17T23:07:00.417Z,83.10
2017-12-17T23:09:28.004Z,83.80
2017-12-17T23:11:55.577Z,83.50
2017-12-17T23:14:24.002Z,83.30
2017-12-17T23:16:51.582Z,83.40
2017-12-17T23:19:19.168Z,83.00
2017-12-17T23:21:48.229Z,83.10
2017-12-17T23:24:16.486Z,83.10
2017-12-17T23:26:44.088Z,82.80
2017-12-17T23:29:11.672Z,82.60
2017-12-17T23:31:39.213Z,82.40
2017-12-17T23:34:06.797Z,83.00
2017-12-17T23:36:34.527Z,82.70
2017-12-17T23:39:02.156Z,82.70
2017-12-17T23:41:29.682Z,82.50
2017-12-17T23:43:58.016Z,82.50
2017-12-17T23:46:26.167Z,82.50
2017-12-17T23:48:53.708Z,82.70
2017-12-17T23:51:21.522Z,82.80
2017-12-17T23:53:49.087Z,82.40
2017-12-17T23:56:16.823Z,82.50
2017-12-17T23:58:44.430Z,82.40
